Terminal Aerodrome Forecast
Issued by NWS Duluth, MN

Home | Current Version | Previous Version | Text Only | Print | Product List | Glossary On
Versions: 1 2 3 4 5 6 7 8 9 10 11 12 13 14 15 16 17 18 19 20 21 22 23
000
FTUS43 KDLH 291735
TAFDLH
TAF
KDLH 291735Z 2918/3018 26017G28KT P6SM OVC035
     FM292300 28020G30KT P6SM SCT040
     FM300200 28012KT P6SM SKC
     FM301200 30014G24KT P6SM SKC=

USA.gov is the U.S. government's official web portal to all federal, state and local government web resources and services.